Fishers Landing, New York
Current Conditions -  °F | °C
As of 8:56 AM on Monday 22 Dec 2014 (Local Time) from KART Reporting Station
Overcast Overcast  
Wind Chill: 21°   Ceiling: 2300
Heat Index: 26°   Visibility: 7mi
Dew Point: 19°   Wind: 5mph
Humidity: 75%   Direction: 60°ENE
Pressure: 30.31"   Gusts: NA
Location:  44.28°N, 76.01°W
Report Text: KART 221356Z AUTO 06004KT 7SM OVC023 M03/M07 A3031 RMK AO2 SLP269 T10331072
Loading
Personal Weather Stations






























Interactive Weather Map New forecast layout! Learn more

10-Day Weather Forecast

Advertisements
Track Severe Weather on mobile